PWSweather.com
Personal Weather Stations
Station Observations
HELOTES
Helotes Park Terrace, Helotes, TX 78023

Helotes Park TerraceHelotes, TX 78023

Lat: 29.57, Lon: -98.68

Elevation: 1060

Station Type: Ambient Weather WS-1090

Latest ConditionsUpdated 6:07:27 AM CDT Sunday, May 24, 2015
Currently Today's Max Today's Min Today's Average
Temperature 62.1°F16.7°C 69.5°F20.8°C 62.1°F16.7°C 65.0°F18.3°C
Dew Point 60.9°F16.1°C 68.2°F20.1°C 60.9°F16.1°C 63.7°F17.6°C
Winds 0.7 mph SSW1.1 kmh SSW 16.8 mph WNW27.0 kmh WNW - 4.8 mph 7.7 kmh
Wind Gusts 1.3 mph2.1 kmh 17.7 mph28.5 kmh - -
Humidity 96% 96% 95% 96%
Pressure 29.73 in1006.8 mb 29.81 in1009.5 mb 29.69 in1005.4 mb -
Precipitation - 0.13 in3.3 mm - -
Hour Temp Dew Point Humidity Winds Wind Gusts Pressure Precip Precip Rate Daily Precip Total
06:07 AM 62.1°F16.7°C 60.9°F16.1°C 96% 0.7 mph SSW1.1 kmh SSW 1.3 mph2.1 kmh 29.73 in1006.8 mb 0.00 in0.0 mm 0.00 in0.0 mm 0.13 in3.3 mm
06:02 AM 62.1°F16.7°C 60.9°F16.1°C 96% 1.3 mph S2.1 kmh S 1.3 mph2.1 kmh 29.73 in1006.8 mb 0.00 in0.0 mm 0.00 in0.0 mm 0.13 in3.3 mm
05:57 AM 62.1°F16.7°C 60.9°F16.1°C 96% 1.1 mph ESE1.8 kmh ESE 1.1 mph1.8 kmh 29.73 in1006.8 mb 0.00 in0.0 mm 0.00 in0.0 mm 0.13 in3.3 mm
05:52 AM 62.1°F16.7°C 60.9°F16.1°C 96% Calm Calm -- 29.73 in1006.8 mb 0.00 in0.0 mm 0.00 in0.0 mm 0.13 in3.3 mm
05:47 AM 62.1°F16.7°C 60.9°F16.1°C 96% Calm Calm 0.7 mph1.1 kmh 29.72 in1006.4 mb 0.00 in0.0 mm 0.00 in0.0 mm 0.13 in3.3 mm
05:42 AM 62.1°F16.7°C 60.9°F16.1°C 96% Calm Calm 0.7 mph1.1 kmh 29.73 in1006.8 mb 0.00 in0.0 mm 0.00 in0.0 mm 0.13 in3.3 mm
05:37 AM 62.3°F16.8°C 61.1°F16.2°C 96% 0.7 mph NE1.1 kmh NE 1.6 mph2.6 kmh 29.72 in1006.4 mb 0.00 in0.0 mm 0.00 in0.0 mm 0.13 in3.3 mm
05:32 AM 62.3°F16.8°C 61.1°F16.2°C 96% 1.6 mph NNE2.6 kmh NNE 1.6 mph2.6 kmh 29.72 in1006.4 mb 0.00 in0.0 mm 0.00 in0.0 mm 0.13 in3.3 mm
05:27 AM 62.3°F16.8°C 61.1°F16.2°C 96% 0.4 mph NNW0.6 kmh NNW 0.7 mph1.1 kmh 29.71 in1006.1 mb 0.00 in0.0 mm 0.00 in0.0 mm 0.13 in3.3 mm
05:22 AM 62.3°F16.8°C 61.1°F16.2°C 96% Calm Calm 0.7 mph1.1 kmh 29.71 in1006.1 mb 0.00 in0.0 mm 0.00 in0.0 mm 0.13 in3.3 mm
05:17 AM 62.3°F16.8°C 61.1°F16.2°C 96% 0.7 mph 1.1 kmh 0.7 mph1.1 kmh 29.71 in1006.1 mb 0.00 in0.0 mm 0.00 in0.0 mm 0.13 in3.3 mm
05:12 AM 62.3°F16.8°C 61.1°F16.2°C 96% Calm Calm 0.4 mph0.6 kmh 29.71 in1006.1 mb 0.00 in0.0 mm 0.00 in0.0 mm 0.13 in3.3 mm
05:07 AM 62.5°F16.9°C 61.3°F16.3°C 96% 0.4 mph NE0.6 kmh NE 1.3 mph2.1 kmh 29.71 in1006.1 mb 0.00 in0.0 mm 0.00 in0.0 mm 0.13 in3.3 mm
05:02 AM 62.5°F16.9°C 61.3°F16.3°C 96% 0.2 mph NNW0.3 kmh NNW 2.0 mph3.2 kmh 29.71 in1006.1 mb 0.01 in0.3 mm 0.00 in0.0 mm 0.13 in3.3 mm
04:57 AM 62.6°F17.0°C 61.5°F16.4°C 96% 1.4 mph NW2.3 kmh NW 2.0 mph3.2 kmh 29.71 in1006.1 mb 0.01 in0.3 mm 0.00 in0.0 mm 0.13 in3.3 mm
04:52 AM 62.6°F17.0°C 61.5°F16.4°C 96% 1.9 mph WSW3.1 kmh WSW 2.2 mph3.5 kmh 29.71 in1006.1 mb 0.01 in0.3 mm 0.00 in0.0 mm 0.13 in3.3 mm
04:47 AM 62.6°F17.0°C 61.5°F16.4°C 96% 1.1 mph W1.8 kmh W 3.1 mph5.0 kmh 29.71 in1006.1 mb 0.01 in0.3 mm 0.00 in0.0 mm 0.13 in3.3 mm
04:42 AM 62.6°F17.0°C 61.5°F16.4°C 96% 2.2 mph W3.5 kmh W 3.8 mph6.1 kmh 29.71 in1006.1 mb 0.01 in0.3 mm 0.00 in0.0 mm 0.13 in3.3 mm
04:37 AM 62.8°F17.1°C 61.7°F16.5°C 96% 3.5 mph WSW5.6 kmh WSW 4.0 mph6.4 kmh 29.72 in1006.4 mb 0.01 in0.3 mm 0.00 in0.0 mm 0.13 in3.3 mm
04:32 AM 62.8°F17.1°C 61.7°F16.5°C 96% 1.7 mph WSW2.7 kmh WSW 4.0 mph6.4 kmh 29.72 in1006.4 mb 0.01 in0.3 mm 0.00 in0.0 mm 0.13 in3.3 mm
04:27 AM 63.0°F17.2°C 61.8°F16.6°C 96% 4.0 mph NE6.4 kmh NE 4.9 mph7.9 kmh 29.71 in1006.1 mb 0.01 in0.3 mm 0.00 in0.0 mm 0.13 in3.3 mm
04:22 AM 62.8°F17.1°C 61.7°F16.5°C 96% 1.1 mph ENE1.8 kmh ENE 6.7 mph10.8 kmh 29.70 in1005.8 mb 0.02 in0.5 mm 0.00 in0.0 mm 0.13 in3.3 mm
04:17 AM 63.0°F17.2°C 61.8°F16.6°C 96% 5.3 mph N8.5 kmh N 6.7 mph10.8 kmh 29.69 in1005.4 mb 0.02 in0.5 mm 0.00 in0.0 mm 0.13 in3.3 mm
04:12 AM 63.0°F17.2°C 61.8°F16.6°C 96% 5.9 mph NNW9.5 kmh NNW 6.7 mph10.8 kmh 29.69 in1005.4 mb 0.03 in0.8 mm 0.00 in0.0 mm 0.13 in3.3 mm
04:07 AM 63.0°F17.2°C 61.8°F16.6°C 96% 3.8 mph NW6.1 kmh NW 6.0 mph9.7 kmh 29.71 in1006.1 mb 0.03 in0.8 mm 0.12 in3.0 mm 0.13 in3.3 mm
04:02 AM 63.2°F17.3°C 61.7°F16.5°C 95% 6.0 mph NW9.7 kmh NW 6.0 mph9.7 kmh 29.73 in1006.8 mb 0.02 in0.5 mm 0.00 in0.0 mm 0.12 in3.0 mm
03:57 AM 63.2°F17.3°C 61.7°F16.5°C 95% 4.8 mph W7.7 kmh W 6.5 mph10.5 kmh 29.74 in1007.1 mb 0.02 in0.5 mm 0.00 in0.0 mm 0.12 in3.0 mm
03:52 AM 63.4°F17.4°C 61.9°F16.6°C 95% 5.3 mph W8.5 kmh W 6.5 mph10.5 kmh 29.76 in1007.8 mb 0.02 in0.5 mm 0.00 in0.0 mm 0.12 in3.0 mm
03:47 AM 63.4°F17.4°C 62.2°F16.8°C 96% 6.5 mph WNW10.5 kmh WNW 6.5 mph10.5 kmh 29.76 in1007.8 mb 0.02 in0.5 mm 0.00 in0.0 mm 0.12 in3.0 mm
03:42 AM 63.4°F17.4°C 61.9°F16.6°C 95% 3.5 mph NNW5.6 kmh NNW 6.5 mph10.5 kmh 29.76 in1007.8 mb 0.02 in0.5 mm 0.00 in0.0 mm 0.12 in3.0 mm
03:37 AM 63.5°F17.5°C 62.4°F16.9°C 96% 6.5 mph W10.5 kmh W 6.5 mph10.5 kmh 29.76 in1007.8 mb 0.02 in0.5 mm 0.00 in0.0 mm 0.12 in3.0 mm
03:32 AM 63.7°F17.6°C 62.3°F16.8°C 95% 3.6 mph WNW5.8 kmh WNW 5.4 mph8.7 kmh 29.77 in1008.1 mb 0.02 in0.5 mm 0.00 in0.0 mm 0.12 in3.0 mm
03:27 AM 63.9°F17.7°C 62.5°F16.9°C 95% 5.4 mph W8.7 kmh W 12.8 mph20.6 kmh 29.77 in1008.1 mb 0.02 in0.5 mm 0.12 in3.0 mm 0.12 in3.0 mm
03:22 AM 64.4°F18.0°C 63.0°F17.2°C 95% 7.3 mph W11.7 kmh W 17.7 mph28.5 kmh 29.78 in1008.5 mb 0.01 in0.3 mm 0.00 in0.0 mm 0.11 in2.8 mm
03:17 AM 64.8°F18.2°C 63.4°F17.4°C 95% 16.8 mph WNW27.0 kmh WNW 17.7 mph28.5 kmh 29.78 in1008.5 mb 0.01 in0.3 mm 0.12 in3.0 mm 0.11 in2.8 mm
03:12 AM 67.0°F19.4°C 65.4°F18.6°C 95% 6.5 mph 10.5 kmh 7.6 mph12.2 kmh 29.79 in1008.8 mb 0.00 in0.0 mm 0.00 in0.0 mm 0.10 in2.5 mm
03:07 AM 68.8°F20.4°C 67.2°F19.6°C 95% 3.4 mph SW5.5 kmh SW 7.6 mph12.2 kmh 29.78 in1008.5 mb 0.00 in0.0 mm 0.00 in0.0 mm 0.10 in2.5 mm
03:02 AM 69.5°F20.8°C 68.2°F20.1°C 96% 6.4 mph WNW10.3 kmh WNW 7.6 mph12.2 kmh 29.78 in1008.5 mb 0.00 in0.0 mm 0.00 in0.0 mm 0.10 in2.5 mm
02:57 AM 69.5°F20.8°C 68.2°F20.1°C 96% 4.0 mph W6.4 kmh W 4.0 mph6.4 kmh 29.77 in1008.1 mb 0.00 in0.0 mm 0.00 in0.0 mm 0.10 in2.5 mm
02:52 AM 69.5°F20.8°C 68.2°F20.1°C 96% 1.6 mph WSW2.6 kmh WSW 2.5 mph4.0 kmh 29.76 in1007.8 mb 0.01 in0.3 mm 0.00 in0.0 mm 0.10 in2.5 mm
02:47 AM 69.5°F20.8°C 68.2°F20.1°C 96% 1.7 mph E2.7 kmh E 6.7 mph10.8 kmh 29.76 in1007.8 mb 0.01 in0.3 mm 0.00 in0.0 mm 0.10 in2.5 mm
02:42 AM 69.5°F20.8°C 68.2°F20.1°C 96% 2.5 mph E4.0 kmh E 6.7 mph10.8 kmh 29.75 in1007.5 mb 0.01 in0.3 mm 0.00 in0.0 mm 0.10 in2.5 mm
02:37 AM 69.3°F20.7°C 68.0°F20.0°C 96% 6.7 mph SSE10.8 kmh SSE 6.7 mph10.8 kmh 29.75 in1007.5 mb 0.01 in0.3 mm 0.00 in0.0 mm 0.10 in2.5 mm
02:32 AM 69.1°F20.6°C 67.9°F19.9°C 96% 5.4 mph S8.7 kmh S 5.4 mph8.7 kmh 29.75 in1007.5 mb 0.01 in0.3 mm 0.00 in0.0 mm 0.10 in2.5 mm
02:27 AM 69.1°F20.6°C 67.9°F19.9°C 96% 2.3 mph S3.7 kmh S 3.4 mph5.5 kmh 29.75 in1007.5 mb 0.02 in0.5 mm 0.00 in0.0 mm 0.10 in2.5 mm
02:22 AM 68.9°F20.5°C 67.7°F19.8°C 96% 3.4 mph E5.5 kmh E 3.4 mph5.5 kmh 29.75 in1007.5 mb 0.02 in0.5 mm 0.00 in0.0 mm 0.10 in2.5 mm
02:17 AM 68.8°F20.4°C 67.5°F19.7°C 96% 2.7 mph ENE4.3 kmh ENE 3.6 mph5.8 kmh 29.74 in1007.1 mb 0.03 in0.8 mm 0.00 in0.0 mm 0.10 in2.5 mm
02:12 AM 68.6°F20.3°C 67.3°F19.6°C 96% 2.2 mph NE3.5 kmh NE 9.4 mph15.1 kmh 29.74 in1007.1 mb 0.04 in1.0 mm 0.00 in0.0 mm 0.10 in2.5 mm
02:07 AM 68.4°F20.2°C 67.1°F19.5°C 96% 7.3 mph NE11.7 kmh NE 9.4 mph15.1 kmh 29.74 in1007.1 mb 0.05 in1.3 mm 0.00 in0.0 mm 0.10 in2.5 mm
02:02 AM 68.0°F20.0°C 66.8°F19.3°C 96% 4.5 mph ENE7.2 kmh ENE 7.2 mph11.6 kmh 29.74 in1007.1 mb 0.06 in1.5 mm 0.00 in0.0 mm 0.10 in2.5 mm
01:57 AM 67.9°F19.9°C 66.6°F19.2°C 96% 7.2 mph ENE11.6 kmh ENE 8.9 mph14.3 kmh 29.74 in1007.1 mb 0.06 in1.5 mm 0.00 in0.0 mm 0.09 in2.3 mm
01:52 AM 67.7°F19.8°C 66.4°F19.1°C 96% 5.6 mph NNW9.0 kmh NNW 10.3 mph16.6 kmh 29.73 in1006.8 mb 0.06 in1.5 mm 0.00 in0.0 mm 0.09 in2.3 mm
01:47 AM 67.5°F19.7°C 66.2°F19.0°C 96% 9.3 mph NNE15.0 kmh NNE 13.0 mph20.9 kmh 29.73 in1006.8 mb 0.06 in1.5 mm 0.00 in0.0 mm 0.09 in2.3 mm
01:42 AM 67.3°F19.6°C 66.1°F18.9°C 96% 9.8 mph NE15.8 kmh NE 13.0 mph20.9 kmh 29.73 in1006.8 mb 0.07 in1.8 mm 0.00 in0.0 mm 0.09 in2.3 mm
01:37 AM 67.0°F19.4°C 65.7°F18.7°C 96% 13.0 mph NNE20.9 kmh NNE 13.0 mph20.9 kmh 29.73 in1006.8 mb 0.07 in1.8 mm 0.12 in3.0 mm 0.09 in2.3 mm
01:32 AM 66.6°F19.2°C 65.3°F18.5°C 96% 8.6 mph ENE13.8 kmh ENE 9.4 mph15.1 kmh 29.74 in1007.1 mb 0.06 in1.5 mm 0.00 in0.0 mm 0.08 in2.0 mm
01:27 AM 66.4°F19.1°C 64.9°F18.3°C 95% 8.5 mph NE13.7 kmh NE 9.8 mph15.8 kmh 29.75 in1007.5 mb 0.08 in2.0 mm 0.12 in3.0 mm 0.08 in2.0 mm
01:22 AM 66.1°F18.9°C 64.5°F18.1°C 95% 9.2 mph ENE14.8 kmh ENE 10.1 mph16.3 kmh 29.76 in1007.8 mb 0.07 in1.8 mm 0.12 in3.0 mm 0.07 in1.8 mm
01:17 AM 65.9°F18.8°C 64.4°F18.0°C 95% 9.8 mph ENE15.8 kmh ENE 10.3 mph16.6 kmh 29.77 in1008.1 mb 0.06 in1.5 mm 0.00 in0.0 mm 0.06 in1.5 mm
01:12 AM 65.9°F18.8°C 64.4°F18.0°C 95% 10.2 mph NNE16.4 kmh NNE 10.3 mph16.6 kmh 29.78 in1008.5 mb 0.06 in1.5 mm 0.12 in3.0 mm 0.06 in1.5 mm
01:07 AM 65.9°F18.8°C 64.4°F18.0°C 95% 4.3 mph ESE6.9 kmh ESE 10.3 mph16.6 kmh 29.79 in1008.8 mb 0.05 in1.3 mm 0.24 in6.1 mm 0.05 in1.3 mm
01:02 AM 65.5°F18.6°C 64.0°F17.8°C 95% 6.9 mph ENE11.1 kmh ENE 8.3 mph13.4 kmh 29.80 in1009.1 mb 0.03 in0.8 mm 0.00 in0.0 mm 0.03 in0.8 mm
12:57 AM 65.5°F18.6°C 64.0°F17.8°C 95% 5.8 mph NE9.3 kmh NE 9.2 mph14.8 kmh 29.80 in1009.1 mb 0.03 in0.8 mm 0.00 in0.0 mm 0.03 in0.8 mm
12:52 AM 65.3°F18.5°C 63.8°F17.7°C 95% 8.8 mph ENE14.2 kmh ENE 12.8 mph20.6 kmh 29.80 in1009.1 mb 0.03 in0.8 mm 0.12 in3.0 mm 0.03 in0.8 mm
12:47 AM 65.0°F18.3°C 63.6°F17.6°C 95% 6.9 mph ENE11.1 kmh ENE 12.8 mph20.6 kmh 29.80 in1009.1 mb 0.02 in0.5 mm 0.00 in0.0 mm 0.02 in0.5 mm
12:42 AM 64.8°F18.2°C 63.4°F17.4°C 95% 12.8 mph E20.6 kmh E 12.8 mph20.6 kmh 29.79 in1008.8 mb 0.02 in0.5 mm 0.00 in0.0 mm 0.02 in0.5 mm
12:37 AM 64.8°F18.2°C 63.4°F17.4°C 95% 10.0 mph N16.1 kmh N 10.5 mph16.9 kmh 29.79 in1008.8 mb 0.02 in0.5 mm 0.00 in0.0 mm 0.02 in0.5 mm
12:32 AM 64.6°F18.1°C 63.2°F17.3°C 95% 5.9 mph NE9.5 kmh NE 10.5 mph16.9 kmh 29.79 in1008.8 mb 0.02 in0.5 mm 0.24 in6.1 mm 0.02 in0.5 mm
12:27 AM 64.4°F18.0°C 63.0°F17.2°C 95% 10.5 mph ESE16.9 kmh ESE 10.5 mph16.9 kmh 29.79 in1008.8 mb 0.00 in0.0 mm 0.00 in0.0 mm 0.00 in0.0 mm
12:22 AM 64.3°F17.9°C 62.8°F17.1°C 95% 7.6 mph N12.2 kmh N 8.1 mph13.0 kmh 29.80 in1009.1 mb 0.00 in0.0 mm 0.00 in0.0 mm 0.00 in0.0 mm
12:17 AM 64.3°F17.9°C 62.8°F17.1°C 95% 6.1 mph NE9.8 kmh NE 8.1 mph13.0 kmh 29.79 in1008.8 mb 0.00 in0.0 mm 0.00 in0.0 mm 0.00 in0.0 mm
12:12 AM 64.3°F17.9°C 62.8°F17.1°C 95% 4.5 mph NNW7.2 kmh NNW 4.9 mph7.9 kmh 29.80 in1009.1 mb 0.00 in0.0 mm 0.00 in0.0 mm 0.00 in0.0 mm
12:07 AM 64.3°F17.9°C 62.8°F17.1°C 95% 4.9 mph NNE7.9 kmh NNE 4.9 mph7.9 kmh 29.81 in1009.5 mb 0.00 in0.0 mm 0.00 in0.0 mm 0.00 in0.0 mm
12:02 AM 64.3°F17.9°C 62.8°F17.1°C 95% 4.5 mph N7.2 kmh N 4.5 mph7.2 kmh 29.81 in1009.5 mb 0.00 in0.0 mm 0.00 in0.0 mm 0.00 in0.0 mm